Time;durP1;ratioP1;P1;durP2;ratioP2;P2;SDS_P1;SDS_P2;PMS_P1;PMS_P2;Temp;Humidity;BMP_temperature;BMP_pressure;BME280_temperature;BME280_humidity;BME280_pressure;Samples;Min_cycle;Max_cycle;Signal;HPM_P1;HPM_P2
2022/10/02 00:01:05;;;;;;;15.37;2.60;;;;;;;;;;5138730;27;20753;-69
2022/10/02 00:03:37;;;;;;;3.57;1.53;;;;;;;;;;5137246;27;20442;-69
2022/10/02 00:06:07;;;;;;;11.70;2.57;;;;;;;;;;5137548;27;20458;-69
2022/10/02 00:08:38;;;;;;;7.23;2.00;;;;;;;;;;5136745;27;20442;-69
2022/10/02 00:11:07;;;;;;;11.07;2.03;;;;;;;;;;5137326;27;20461;-69
2022/10/02 00:13:39;;;;;;;9.73;1.90;;;;;;;;;;5136115;27;21175;-68
2022/10/02 00:16:11;;;;;;;9.47;1.90;;;;;;;;;;5137139;27;20635;-69
2022/10/02 00:18:40;;;;;;;7.33;1.90;;;;;;;;;;5137009;27;20434;-69
2022/10/02 00:21:11;;;;;;;11.93;2.77;;;;;;;;;;5139045;27;20442;-69
2022/10/02 00:23:40;;;;;;;14.57;3.37;;;;;;;;;;5136234;27;20486;-69
2022/10/02 00:26:10;;;;;;;12.87;2.70;;;;;;;;;;5136777;27;20530;-69
2022/10/02 00:28:44;;;;;;;10.13;2.43;;;;;;;;;;5136483;27;20541;-69
2022/10/02 00:31:21;;;;;;;12.37;2.30;;;;;;;;;;5135338;27;20457;-69
2022/10/02 00:33:53;;;;;;;5.17;1.33;;;;;;;;;;5137063;27;20460;-69
2022/10/02 00:36:26;;;;;;;14.10;4.93;;;;;;;;;;5135514;27;20465;-69
2022/10/02 00:39:00;;;;;;;12.33;2.60;;;;;;;;;;5136234;27;20442;-69
2022/10/02 00:41:48;;;;;;;4.80;2.03;;;;;;;;;;5136306;27;20457;-69
2022/10/02 00:44:20;;;;;;;9.20;2.40;;;;;;;;;;5129981;27;20560;-70
2022/10/02 00:46:50;;;;;;;5.50;1.67;;;;;;;;;;5136204;27;20815;-70
2022/10/02 00:49:39;;;;;;;10.70;3.07;;;;;;;;;;5131151;27;20528;-69
2022/10/02 00:52:13;;;;;;;7.07;1.90;;;;;;;;;;5112146;28;20458;-69
2022/10/02 00:54:56;;;;;;;12.07;2.23;;;;;;;;;;5116096;28;20500;-69
2022/10/02 00:57:36;;;;;;;6.20;1.60;;;;;;;;;;5116003;28;20480;-69
2022/10/02 01:00:06;;;;;;;12.73;2.20;;;;;;;;;;5114653;28;20677;-69
2022/10/02 01:02:44;;;;;;;4.93;1.30;;;;;;;;;;5114736;28;20892;-69
2022/10/02 01:05:11;;;;;;;6.90;1.53;;;;;;;;;;5115100;28;20525;-69
2022/10/02 01:07:40;;;;;;;11.27;2.30;;;;;;;;;;5115598;28;20667;-69
2022/10/02 01:10:08;;;;;;;4.17;1.37;;;;;;;;;;5115920;28;20465;-69
2022/10/02 01:12:39;;;;;;;5.97;2.03;;;;;;;;;;5115612;28;20447;-69
2022/10/02 01:15:19;;;;;;;4.07;1.30;;;;;;;;;;5114383;28;20875;-69
2022/10/02 01:17:46;;;;;;;4.77;1.47;;;;;;;;;;5114503;28;20499;-69
2022/10/02 01:20:16;;;;;;;10.83;1.83;;;;;;;;;;5114865;28;20485;-69
2022/10/02 01:22:47;;;;;;;5.37;1.63;;;;;;;;;;5115469;28;20537;-68
2022/10/02 01:25:15;;;;;;;9.37;1.90;;;;;;;;;;5114653;28;20584;-69
2022/10/02 01:27:42;;;;;;;8.80;2.07;;;;;;;;;;5114534;28;20454;-69
2022/10/02 01:30:11;;;;;;;5.17;2.40;;;;;;;;;;5114588;28;20461;-69
2022/10/02 01:32:41;;;;;;;5.93;1.90;;;;;;;;;;5115194;28;20447;-68
2022/10/02 01:35:09;;;;;;;3.47;1.60;;;;;;;;;;5115372;28;20458;-69
2022/10/02 01:37:37;;;;;;;6.93;2.33;;;;;;;;;;5114702;28;20910;-69
2022/10/02 01:40:07;;;;;;;9.97;2.13;;;;;;;;;;5115253;28;20488;-69
2022/10/02 01:42:35;;;;;;;5.43;1.33;;;;;;;;;;5114961;28;20443;-69
2022/10/02 01:45:03;;;;;;;6.10;1.80;;;;;;;;;;5115343;28;20550;-68
2022/10/02 01:47:33;;;;;;;10.50;2.40;;;;;;;;;;5114932;28;20453;-69
2022/10/02 01:50:07;;;;;;;7.53;2.33;;;;;;;;;;5115977;28;20455;-69
2022/10/02 01:52:38;;;;;;;6.80;1.47;;;;;;;;;;5114659;28;20818;-69
2022/10/02 01:55:14;;;;;;;8.23;2.30;;;;;;;;;;5115209;28;20879;-68
2022/10/02 01:57:49;;;;;;;4.17;1.30;;;;;;;;;;5115930;28;20545;-69
2022/10/02 02:00:17;;;;;;;7.80;2.53;;;;;;;;;;5115253;28;20441;-68
2022/10/02 02:02:51;;;;;;;5.20;1.57;;;;;;;;;;5114416;28;20740;-68
2022/10/02 02:05:24;;;;;;;4.40;1.80;;;;;;;;;;5114542;28;21033;-69
2022/10/02 02:07:55;;;;;;;13.87;2.67;;;;;;;;;;5115884;28;20450;-68
2022/10/02 02:10:24;;;;;;;3.70;1.80;;;;;;;;;;5116314;28;20460;-68
2022/10/02 02:12:56;;;;;;;7.57;1.73;;;;;;;;;;5115052;28;20465;-68
2022/10/02 02:15:25;;;;;;;10.30;1.70;;;;;;;;;;5114877;28;20458;-68
2022/10/02 02:17:55;;;;;;;4.67;2.20;;;;;;;;;;5114809;28;20773;-68
2022/10/02 02:20:25;;;;;;;5.03;1.87;;;;;;;;;;5114231;28;20511;-68
2022/10/02 02:22:53;;;;;;;4.70;1.10;;;;;;;;;;5114331;28;20463;-68
2022/10/02 02:25:21;;;;;;;4.47;1.80;;;;;;;;;;5113571;28;20548;-68
2022/10/02 02:27:50;;;;;;;10.07;1.70;;;;;;;;;;5114886;28;20455;-68
2022/10/02 02:30:18;;;;;;;8.53;2.23;;;;;;;;;;5115112;28;20462;-68
2022/10/02 02:32:46;;;;;;;13.23;1.80;;;;;;;;;;5117528;28;20466;-69
2022/10/02 02:35:16;;;;;;;14.30;1.90;;;;;;;;;;5118390;27;20486;-68
2022/10/02 02:37:45;;;;;;;10.83;2.90;;;;;;;;;;5118634;27;20463;-68
2022/10/02 02:40:14;;;;;;;6.47;1.27;;;;;;;;;;5117798;27;20446;-68
2022/10/02 02:42:42;;;;;;;5.60;1.90;;;;;;;;;;5117981;27;20913;-68
2022/10/02 02:45:12;;;;;;;13.13;1.97;;;;;;;;;;5117599;27;20573;-68
2022/10/02 02:47:44;;;;;;;5.27;1.40;;;;;;;;;;5118280;27;20454;-68
2022/10/02 02:50:15;;;;;;;6.77;1.77;;;;;;;;;;5117874;27;20480;-68
2022/10/02 02:52:45;;;;;;;11.00;2.27;;;;;;;;;;5118027;27;20458;-68
2022/10/02 02:55:15;;;;;;;7.37;3.10;;;;;;;;;;5116560;28;20555;-69
2022/10/02 02:57:45;;;;;;;5.00;1.40;;;;;;;;;;5117585;27;20486;-68
2022/10/02 03:00:14;;;;;;;9.00;2.30;;;;;;;;;;5118140;27;20458;-68
2022/10/02 03:02:42;;;;;;;9.87;1.80;;;;;;;;;;5117651;27;20462;-74
2022/10/02 03:05:12;;;;;;;11.13;1.87;;;;;;;;;;5117219;27;20910;-68
2022/10/02 03:07:40;;;;;;;4.53;2.00;;;;;;;;;;5117071;27;20541;-70
2022/10/02 03:10:11;;;;;;;3.40;1.60;;;;;;;;;;5119003;27;20454;-69
2022/10/02 03:12:45;;;;;;;7.13;1.60;;;;;;;;;;5118534;27;20450;-69
2022/10/02 03:15:27;;;;;;;9.77;1.57;;;;;;;;;;5117405;27;20451;-69
2022/10/02 03:18:09;;;;;;;4.77;1.83;;;;;;;;;;5113654;27;20535;-69
2022/10/02 03:20:41;;;;;;;4.30;1.37;;;;;;;;;;5114131;27;20876;-69
2022/10/02 03:23:13;;;;;;;8.87;2.30;;;;;;;;;;5117399;27;20459;-69
2022/10/02 03:25:44;;;;;;;4.40;1.20;;;;;;;;;;5117304;27;20483;-69
2022/10/02 03:28:12;;;;;;;6.17;1.40;;;;;;;;;;5117159;27;20541;-69
2022/10/02 03:30:40;;;;;;;6.77;1.70;;;;;;;;;;5117588;27;20733;-68
2022/10/02 03:33:07;;;;;;;8.60;2.30;;;;;;;;;;5117111;27;20493;-69
2022/10/02 03:35:35;;;;;;;5.33;1.43;;;;;;;;;;5116768;27;20719;-69
2022/10/02 03:38:05;;;;;;;5.83;1.97;;;;;;;;;;5116854;27;20729;-69
2022/10/02 03:40:32;;;;;;;3.80;1.37;;;;;;;;;;5117591;27;20439;-69
2022/10/02 03:43:00;;;;;;;5.50;1.70;;;;;;;;;;5117231;27;20459;-69
2022/10/02 03:45:28;;;;;;;3.37;1.47;;;;;;;;;;5116545;27;20482;-69
2022/10/02 03:47:58;;;;;;;3.77;1.43;;;;;;;;;;5122649;27;20518;-69
2022/10/02 03:50:25;;;;;;;11.00;2.13;;;;;;;;;;5137986;27;20445;-69
2022/10/02 03:52:53;;;;;;;8.10;1.83;;;;;;;;;;5138684;27;20749;-69
2022/10/02 03:55:28;;;;;;;7.77;2.00;;;;;;;;;;5138392;27;20450;-69
2022/10/02 03:57:56;;;;;;;8.00;2.00;;;;;;;;;;5136601;27;20461;-69
2022/10/02 04:00:24;;;;;;;6.03;1.80;;;;;;;;;;5137060;27;20728;-69
2022/10/02 04:02:56;;;;;;;6.23;2.07;;;;;;;;;;5137749;27;20481;-69
2022/10/02 04:05:24;;;;;;;5.70;1.93;;;;;;;;;;5136914;27;20545;-69
2022/10/02 04:07:55;;;;;;;4.00;2.10;;;;;;;;;;5137775;27;20450;-68
2022/10/02 04:10:27;;;;;;;6.70;2.27;;;;;;;;;;5136889;27;20446;-68
2022/10/02 04:12:58;;;;;;;11.80;2.70;;;;;;;;;;5136419;27;20484;-68
2022/10/02 04:15:28;;;;;;;8.40;2.30;;;;;;;;;;5125990;28;20521;-69
2022/10/02 04:17:57;;;;;;;8.43;2.47;;;;;;;;;;5136601;27;20542;-68
2022/10/02 04:20:26;;;;;;;3.70;1.70;;;;;;;;;;5136608;27;20481;-69
2022/10/02 04:22:55;;;;;;;8.77;2.70;;;;;;;;;;5137018;27;20745;-68
2022/10/02 04:25:25;;;;;;;8.33;1.87;;;;;;;;;;5137389;27;20532;-68
2022/10/02 04:27:54;;;;;;;7.83;2.30;;;;;;;;;;5136091;27;20529;-68
2022/10/02 04:30:25;;;;;;;6.97;2.50;;;;;;;;;;5137327;27;20469;-69
2022/10/02 04:32:56;;;;;;;6.57;2.17;;;;;;;;;;5131190;27;20459;-69
2022/10/02 04:35:27;;;;;;;9.40;2.77;;;;;;;;;;5115716;28;20439;-68
2022/10/02 04:38:12;;;;;;;7.50;2.63;;;;;;;;;;5116708;28;20469;-68
2022/10/02 04:40:49;;;;;;;6.20;2.70;;;;;;;;;;5115006;28;20442;-69
2022/10/02 04:43:24;;;;;;;6.73;2.00;;;;;;;;;;5115826;28;20454;-69
2022/10/02 04:46:08;;;;;;;3.77;1.63;;;;;;;;;;5115987;28;20490;-69
2022/10/02 04:49:02;;;;;;;8.70;2.87;;;;;;;;;;5115794;28;20453;-69
2022/10/02 04:51:37;;;;;;;8.03;2.17;;;;;;;;;;5056851;28;20761;-68
2022/10/02 04:54:10;;;;;;;7.20;2.50;;;;;;;;;;5115204;28;20488;-68
2022/10/02 04:56:52;;;;;;;11.07;3.00;;;;;;;;;;5115368;28;20519;-68
2022/10/02 04:59:26;;;;;;;9.57;2.30;;;;;;;;;;5114939;28;20784;-68
2022/10/02 05:01:59;;;;;;;11.57;2.87;;;;;;;;;;5114907;28;20459;-68
2022/10/02 05:04:32;;;;;;;5.90;2.43;;;;;;;;;;5115728;28;20493;-69
2022/10/02 05:07:06;;;;;;;7.30;3.63;;;;;;;;;;5114753;28;20752;-68
2022/10/02 05:09:36;;;;;;;6.23;4.37;;;;;;;;;;5116294;28;20549;-69
2022/10/02 05:12:17;;;;;;;9.27;2.93;;;;;;;;;;5115898;28;20454;-69
2022/10/02 05:14:57;;;;;;;7.60;3.77;;;;;;;;;;5115378;28;20940;-69
2022/10/02 05:17:35;;;;;;;14.10;3.37;;;;;;;;;;5115417;28;20547;-69
2022/10/02 05:20:09;;;;;;;10.40;3.63;;;;;;;;;;5115229;28;20454;-68
2022/10/02 05:22:48;;;;;;;8.70;3.93;;;;;;;;;;5115668;28;20459;-71
2022/10/02 05:25:20;;;;;;;8.93;3.20;;;;;;;;;;5115204;28;20514;-68
2022/10/02 05:27:59;;;;;;;17.03;5.33;;;;;;;;;;5115994;28;20462;-68
2022/10/02 05:30:31;;;;;;;6.87;3.63;;;;;;;;;;5115657;28;20457;-68
2022/10/02 05:33:07;;;;;;;14.37;4.40;;;;;;;;;;5116522;28;20869;-68
2022/10/02 05:35:48;;;;;;;11.67;4.20;;;;;;;;;;5115797;28;20533;-69
2022/10/02 05:38:26;;;;;;;7.30;3.83;;;;;;;;;;5116540;28;20781;-68
2022/10/02 05:40:59;;;;;;;9.20;3.50;;;;;;;;;;5116061;28;20447;-69
2022/10/02 05:43:30;;;;;;;7.60;4.53;;;;;;;;;;5115211;28;20866;-69
2022/10/02 05:45:59;;;;;;;6.13;3.97;;;;;;;;;;5115612;28;20490;-68
2022/10/02 05:48:28;;;;;;;13.00;5.70;;;;;;;;;;5115549;28;20486;-68
2022/10/02 05:50:59;;;;;;;9.30;4.20;;;;;;;;;;5127926;27;20469;-69
2022/10/02 05:53:32;;;;;;;9.20;4.67;;;;;;;;;;5136513;27;20442;-69
2022/10/02 05:56:00;;;;;;;9.27;4.90;;;;;;;;;;5135810;27;20445;-68
2022/10/02 05:58:30;;;;;;;8.83;3.83;;;;;;;;;;5137687;27;20449;-70
2022/10/02 06:00:59;;;;;;;10.50;4.30;;;;;;;;;;5136299;27;20441;-68
2022/10/02 06:03:32;;;;;;;9.03;4.33;;;;;;;;;;5135457;27;20449;-68
2022/10/02 06:06:01;;;;;;;16.10;5.03;;;;;;;;;;5135736;27;20822;-68
2022/10/02 06:08:33;;;;;;;9.13;4.47;;;;;;;;;;5135127;27;20869;-69
2022/10/02 06:11:03;;;;;;;11.33;4.67;;;;;;;;;;5135508;27;20498;-69
2022/10/02 06:13:34;;;;;;;16.30;5.30;;;;;;;;;;5135035;27;20532;-68
2022/10/02 06:16:05;;;;;;;4.97;3.63;;;;;;;;;;5134722;27;20505;-69
2022/10/02 06:18:34;;;;;;;6.47;2.93;;;;;;;;;;5135514;27;20804;-69
2022/10/02 06:21:03;;;;;;;13.10;4.27;;;;;;;;;;5128260;27;20861;-69
2022/10/02 06:23:35;;;;;;;7.83;3.77;;;;;;;;;;5123434;27;20430;-69
2022/10/02 06:26:04;;;;;;;4.90;2.70;;;;;;;;;;5118681;28;20763;-69
2022/10/02 06:28:35;;;;;;;12.50;4.13;;;;;;;;;;5135336;27;20870;-69
2022/10/02 06:31:05;;;;;;;13.77;4.10;;;;;;;;;;5113733;28;20510;-69
2022/10/02 06:33:33;;;;;;;14.03;4.03;;;;;;;;;;5123299;28;20442;-69
2022/10/02 06:36:06;;;;;;;10.50;3.37;;;;;;;;;;5123325;27;20446;-68
2022/10/02 06:38:40;;;;;;;7.00;3.03;;;;;;;;;;5119053;27;20519;-68
2022/10/02 06:41:11;;;;;;;13.53;4.00;;;;;;;;;;5116598;28;20869;-68
2022/10/02 06:43:57;;;;;;;10.10;2.77;;;;;;;;;;5122320;28;20443;-68
2022/10/02 06:46:28;;;;;;;5.27;3.17;;;;;;;;;;5113583;27;21181;-69
2022/10/02 06:48:57;;;;;;;14.60;3.80;;;;;;;;;;5117339;27;20459;-69
2022/10/02 06:51:31;;;;;;;6.00;2.40;;;;;;;;;;5115178;28;20943;-69
2022/10/02 06:54:03;;;;;;;12.90;3.73;;;;;;;;;;5126394;27;20455;-69
2022/10/02 06:56:48;;;;;;;7.50;4.07;;;;;;;;;;5118551;27;20461;-69
2022/10/02 06:59:21;;;;;;;16.27;3.30;;;;;;;;;;5126384;27;20446;-69
2022/10/02 07:01:53;;;;;;;9.33;3.77;;;;;;;;;;5117835;28;20458;-69
2022/10/02 07:04:28;;;;;;;8.20;2.47;;;;;;;;;;5118945;27;20459;-68
2022/10/02 07:07:03;;;;;;;5.20;2.30;;;;;;;;;;5115265;28;20483;-69
2022/10/02 07:09:41;;;;;;;5.90;2.87;;;;;;;;;;5128810;27;20476;-70
2022/10/02 07:12:19;;;;;;;9.03;3.10;;;;;;;;;;5118076;28;20466;-69
2022/10/02 07:14:57;;;;;;;6.67;3.20;;;;;;;;;;5119021;28;20754;-70
2022/10/02 07:17:30;;;;;;;5.60;4.47;;;;;;;;;;5129294;27;20457;-71
2022/10/02 07:20:05;;;;;;;6.73;2.70;;;;;;;;;;5123005;27;20593;-70
2022/10/02 07:22:39;;;;;;;8.60;4.37;;;;;;;;;;5121549;28;20466;-70
2022/10/02 07:25:14;;;;;;;9.50;3.20;;;;;;;;;;5125196;27;20531;-70
2022/10/02 07:27:49;;;;;;;9.33;3.70;;;;;;;;;;5128862;27;20501;-70
2022/10/02 07:30:18;;;;;;;9.30;3.40;;;;;;;;;;5128822;27;20881;-69
2022/10/02 07:32:48;;;;;;;12.50;4.20;;;;;;;;;;5124785;28;20454;-68
2022/10/02 07:35:33;;;;;;;8.80;4.20;;;;;;;;;;5131542;27;20549;-68
2022/10/02 07:38:08;;;;;;;4.93;3.20;;;;;;;;;;5117458;28;20465;-70
2022/10/02 07:40:39;;;;;;;12.27;4.60;;;;;;;;;;5127958;27;20571;-69
2022/10/02 07:43:12;;;;;;;7.50;4.20;;;;;;;;;;5138217;27;20460;-70
2022/10/02 07:45:48;;;;;;;11.50;4.60;;;;;;;;;;5132606;27;20493;-70
2022/10/02 07:48:24;;;;;;;6.20;3.20;;;;;;;;;;5117047;28;20458;-69
2022/10/02 07:50:56;;;;;;;8.63;4.60;;;;;;;;;;5116506;28;20843;-70
2022/10/02 07:53:27;;;;;;;14.20;5.23;;;;;;;;;;5128747;27;20485;-70
2022/10/02 07:56:18;;;;;;;8.70;4.80;;;;;;;;;;5117075;28;20498;-70
2022/10/02 07:58:50;;;;;;;4.90;3.60;;;;;;;;;;5116457;28;21097;-70
2022/10/02 08:01:22;;;;;;;9.40;4.50;;;;;;;;;;5117102;27;20561;-70
2022/10/02 08:03:56;;;;;;;9.90;3.90;;;;;;;;;;5117764;27;20472;-70
2022/10/02 08:06:26;;;;;;;4.53;2.90;;;;;;;;;;5131376;27;20909;-70
2022/10/02 08:08:58;;;;;;;5.20;2.60;;;;;;;;;;5118126;28;20537;-72
2022/10/02 08:11:29;;;;;;;11.03;4.27;;;;;;;;;;5123855;28;20475;-68
2022/10/02 08:13:59;;;;;;;6.50;3.17;;;;;;;;;;5121812;28;20462;-70
2022/10/02 08:16:28;;;;;;;8.77;2.97;;;;;;;;;;5136230;27;20816;-70
2022/10/02 08:19:01;;;;;;;8.90;3.30;;;;;;;;;;5123750;28;20455;-70
2022/10/02 08:21:33;;;;;;;5.70;2.40;;;;;;;;;;5115390;28;20455;-70
2022/10/02 08:24:02;;;;;;;7.57;2.70;;;;;;;;;;5119049;28;20446;-70
2022/10/02 08:26:31;;;;;;;7.23;2.53;;;;;;;;;;5126770;27;20490;-70
2022/10/02 08:29:04;;;;;;;5.20;2.40;;;;;;;;;;5114477;28;20486;-70
2022/10/02 08:31:31;;;;;;;7.53;2.80;;;;;;;;;;5115954;28;20453;-70
2022/10/02 08:33:59;;;;;;;4.50;2.67;;;;;;;;;;5117711;28;20484;-69
2022/10/02 08:36:42;;;;;;;6.30;3.17;;;;;;;;;;5116243;28;20956;-69
2022/10/02 08:39:17;;;;;;;7.53;3.10;;;;;;;;;;5118242;27;20454;-69
2022/10/02 08:42:05;;;;;;;9.13;3.57;;;;;;;;;;5115445;27;20501;-69
2022/10/02 08:44:53;;;;;;;6.63;3.80;;;;;;;;;;5115160;27;20796;-69
2022/10/02 08:47:36;;;;;;;8.10;3.40;;;;;;;;;;5126093;27;20469;-69
2022/10/02 08:50:22;;;;;;;7.13;3.50;;;;;;;;;;5137516;27;20750;-69
2022/10/02 08:53:00;;;;;;;10.47;3.73;;;;;;;;;;5134680;28;20488;-71
2022/10/02 08:55:46;;;;;;;11.00;3.93;;;;;;;;;;5126911;27;20520;-70
2022/10/02 08:58:27;;;;;;;7.03;3.83;;;;;;;;;;5136547;27;21161;-70
2022/10/02 09:01:02;;;;;;;9.03;4.63;;;;;;;;;;5135868;27;20449;-71
2022/10/02 09:03:47;;;;;;;11.53;3.90;;;;;;;;;;5134528;27;20763;-71
2022/10/02 09:06:29;;;;;;;12.17;4.07;;;;;;;;;;5125766;27;21016;-70
2022/10/02 09:09:17;;;;;;;11.70;3.70;;;;;;;;;;5136186;27;20446;-69
2022/10/02 09:11:59;;;;;;;15.30;6.83;;;;;;;;;;5134670;27;20466;-68
2022/10/02 09:14:42;;;;;;;11.10;4.00;;;;;;;;;;5135479;27;20512;-70
2022/10/02 09:17:32;;;;;;;12.87;5.37;;;;;;;;;;5132688;27;20510;-71
2022/10/02 09:20:10;;;;;;;5.97;3.90;;;;;;;;;;5121886;28;20462;-69
2022/10/02 09:22:48;;;;;;;8.30;3.93;;;;;;;;;;5127157;28;20461;-70
2022/10/02 09:25:27;;;;;;;14.17;5.17;;;;;;;;;;5120665;27;20482;-70
2022/10/02 09:28:07;;;;;;;6.47;4.30;;;;;;;;;;5114259;28;20531;-69
2022/10/02 09:30:51;;;;;;;17.43;5.23;;;;;;;;;;5118115;28;20466;-70
2022/10/02 09:33:39;;;;;;;12.43;3.73;;;;;;;;;;5115560;28;20470;-70
2022/10/02 09:36:23;;;;;;;9.87;4.03;;;;;;;;;;5114847;28;20466;-69
2022/10/02 09:39:11;;;;;;;6.97;3.97;;;;;;;;;;5113716;28;20485;-69
2022/10/02 09:41:58;;;;;;;9.57;3.40;;;;;;;;;;5115340;28;20453;-70
2022/10/02 09:44:44;;;;;;;7.70;3.93;;;;;;;;;;5114738;28;20828;-70
2022/10/02 09:47:34;;;;;;;8.17;3.40;;;;;;;;;;5123858;28;20465;-71
2022/10/02 09:50:09;;;;;;;5.83;3.00;;;;;;;;;;5082484;28;20528;-70
2022/10/02 09:52:49;;;;;;;10.10;3.43;;;;;;;;;;5128651;27;20462;-70
2022/10/02 09:55:28;;;;;;;8.50;2.53;;;;;;;;;;5136964;27;20449;-70
2022/10/02 09:58:06;;;;;;;8.70;2.67;;;;;;;;;;5133767;27;20460;-70
2022/10/02 10:00:50;;;;;;;7.57;2.27;;;;;;;;;;5130935;27;20589;-72
2022/10/02 10:03:35;;;;;;;7.57;1.60;;;;;;;;;;5114444;28;20712;-72
2022/10/02 10:06:23;;;;;;;6.83;1.10;;;;;;;;;;5113474;28;20478;-71
2022/10/02 10:09:05;;;;;;;2.00;0.80;;;;;;;;;;5122037;27;20495;-71
2022/10/02 10:11:43;;;;;;;4.53;1.00;;;;;;;;;;5133319;27;20722;-70
2022/10/02 10:14:28;;;;;;;3.70;0.90;;;;;;;;;;5130864;27;20596;-70
2022/10/02 10:17:18;;;;;;;3.87;1.03;;;;;;;;;;5120653;27;20482;-70
2022/10/02 10:20:02;;;;;;;2.17;0.80;;;;;;;;;;5130523;27;20463;-70
2022/10/02 10:22:48;;;;;;;2.07;0.90;;;;;;;;;;5113831;28;20524;-70
2022/10/02 10:25:53;;;;;;;1.57;0.70;;;;;;;;;;5115128;28;20817;-70
2022/10/02 10:28:38;;;;;;;4.37;1.80;;;;;;;;;;5047215;28;20623;-69
2022/10/02 10:31:22;;;;;;;1.80;0.80;;;;;;;;;;5115968;28;20458;-71
2022/10/02 10:34:03;;;;;;;2.80;0.70;;;;;;;;;;5111920;28;20451;-72
2022/10/02 10:39:56;;;;;;;4.50;0.90;;;;;;;;;;5116554;28;20457;-71
2022/10/02 10:42:37;;;;;;;2.77;1.13;;;;;;;;;;5128893;27;20464;-70
2022/10/02 10:45:17;;;;;;;2.13;1.33;;;;;;;;;;5128606;27;20580;-70
2022/10/02 10:48:10;;;;;;;3.20;1.10;;;;;;;;;;5132536;27;20538;-70
2022/10/02 10:50:51;;;;;;;2.90;1.27;;;;;;;;;;5113926;28;20455;-70
2022/10/02 10:53:35;;;;;;;6.20;0.90;;;;;;;;;;5122654;28;20745;-70
2022/10/02 10:56:18;;;;;;;3.10;1.00;;;;;;;;;;5112550;27;20529;-71
2022/10/02 10:58:54;;;;;;;3.70;1.30;;;;;;;;;;5132815;27;20465;-70
2022/10/02 11:01:35;;;;;;;3.80;1.50;;;;;;;;;;5116081;28;20467;-69
2022/10/02 11:04:15;;;;;;;2.10;1.10;;;;;;;;;;5115046;28;20542;-69
2022/10/02 11:06:59;;;;;;;7.40;1.93;;;;;;;;;;5121587;28;20554;-69
2022/10/02 11:09:39;;;;;;;6.30;2.17;;;;;;;;;;5128616;27;20471;-68
2022/10/02 11:12:16;;;;;;;5.17;1.43;;;;;;;;;;5127578;27;20494;-70
2022/10/02 11:14:51;;;;;;;7.60;2.13;;;;;;;;;;5114462;28;20450;-70
2022/10/02 11:17:32;;;;;;;6.43;1.73;;;;;;;;;;5116969;28;20490;-70
2022/10/02 11:20:08;;;;;;;6.77;1.97;;;;;;;;;;5131086;27;20908;-70
2022/10/02 11:22:49;;;;;;;6.00;1.13;;;;;;;;;;5134885;27;20521;-71
2022/10/02 11:25:25;;;;;;;8.70;2.53;;;;;;;;;;5135193;27;21168;-68
2022/10/02 11:28:04;;;;;;;4.83;1.47;;;;;;;;;;5128800;27;20450;-71
2022/10/02 11:30:33;;;;;;;9.57;1.30;;;;;;;;;;5115833;28;20511;-70
2022/10/02 11:33:13;;;;;;;5.43;2.17;;;;;;;;;;5115492;28;20928;-70
2022/10/02 11:35:59;;;;;;;4.43;1.10;;;;;;;;;;5120201;28;20518;-69
2022/10/02 11:38:45;;;;;;;5.23;2.10;;;;;;;;;;5120947;28;20479;-68
2022/10/02 11:41:22;;;;;;;25.57;2.00;;;;;;;;;;5114411;28;20557;-70
2022/10/02 11:44:05;;;;;;;2.03;0.83;;;;;;;;;;5125371;27;20476;-69
2022/10/02 11:46:57;;;;;;;5.60;1.00;;;;;;;;;;5114497;28;20526;-69
2022/10/02 11:49:42;;;;;;;4.73;1.30;;;;;;;;;;5118243;27;20898;-69
2022/10/02 11:52:22;;;;;;;4.67;1.30;;;;;;;;;;5130513;27;20449;-70
2022/10/02 11:54:59;;;;;;;3.53;1.00;;;;;;;;;;5133606;27;20465;-69
2022/10/02 11:57:41;;;;;;;8.30;2.53;;;;;;;;;;5133446;27;20515;-70
2022/10/02 12:00:12;;;;;;;5.90;3.00;;;;;;;;;;5123458;27;20470;-70
2022/10/02 12:02:44;;;;;;;8.83;1.17;;;;;;;;;;5114270;28;20508;-68
2022/10/02 12:05:22;;;;;;;7.33;1.77;;;;;;;;;;5114057;28;20558;-70
2022/10/02 12:07:54;;;;;;;6.53;1.20;;;;;;;;;;5116483;27;20450;-68
2022/10/02 12:10:38;;;;;;;7.50;1.50;;;;;;;;;;5115972;28;20466;-69
2022/10/02 12:13:29;;;;;;;7.17;1.50;;;;;;;;;;5114214;28;20482;-69
2022/10/02 12:16:02;;;;;;;7.37;1.97;;;;;;;;;;5110698;28;20464;-69
2022/10/02 12:18:41;;;;;;;3.90;1.20;;;;;;;;;;5126710;27;20466;-70
2022/10/02 12:27:02;;;;;;;4.67;1.17;;;;;;;;;;5113157;28;20495;-69
2022/10/02 12:29:52;;;;;;;9.33;4.70;;;;;;;;;;5112673;28;20455;-69
2022/10/02 12:32:25;;;;;;;6.90;2.10;;;;;;;;;;5118378;28;20470;-69
2022/10/02 12:34:58;;;;;;;7.17;3.23;;;;;;;;;;5113673;28;20431;-70
2022/10/02 12:37:30;;;;;;;7.17;1.63;;;;;;;;;;5111724;28;20446;-69
2022/10/02 12:40:01;;;;;;;4.07;1.20;;;;;;;;;;5112537;28;20447;-69
2022/10/02 12:42:43;;;;;;;18.60;4.60;;;;;;;;;;5127502;27;20450;-68
2022/10/02 12:45:27;;;;;;;18.47;8.97;;;;;;;;;;5130632;27;20894;-69
2022/10/02 12:48:09;;;;;;;8.53;3.47;;;;;;;;;;5115088;28;20466;-70
2022/10/02 12:50:55;;;;;;;4.50;1.70;;;;;;;;;;5122748;27;20461;-70
2022/10/02 12:53:52;;;;;;;11.80;2.40;;;;;;;;;;5115976;28;20446;-70
2022/10/02 12:56:48;;;;;;;7.77;2.20;;;;;;;;;;5127102;27;20475;-70
2022/10/02 12:59:22;;;;;;;9.07;3.13;;;;;;;;;;5119129;27;20472;-70
2022/10/02 13:02:25;;;;;;;8.73;1.90;;;;;;;;;;5113811;28;21046;-70
2022/10/02 13:05:15;;;;;;;5.10;1.20;;;;;;;;;;5106976;28;20563;-70
2022/10/02 13:08:08;;;;;;;6.77;1.20;;;;;;;;;;5114791;28;20462;-69
2022/10/02 13:10:41;;;;;;;5.43;2.37;;;;;;;;;;5130172;27;20810;-70
2022/10/02 13:13:18;;;;;;;5.00;1.37;;;;;;;;;;5114970;28;20461;-70
2022/10/02 13:15:55;;;;;;;9.50;1.97;;;;;;;;;;5127263;27;20480;-70
2022/10/02 13:18:44;;;;;;;6.77;1.17;;;;;;;;;;5119578;27;20510;-70
2022/10/02 13:21:18;;;;;;;6.13;1.10;;;;;;;;;;5125466;28;20462;-69
2022/10/02 13:23:51;;;;;;;6.30;1.47;;;;;;;;;;5127282;27;20461;-69
2022/10/02 13:26:28;;;;;;;6.00;1.43;;;;;;;;;;5131011;27;20474;-69
2022/10/02 13:29:13;;;;;;;4.07;1.00;;;;;;;;;;5117426;27;20547;-69
2022/10/02 13:31:54;;;;;;;5.77;1.07;;;;;;;;;;5131797;27;20456;-69
2022/10/02 13:34:40;;;;;;;3.20;1.20;;;;;;;;;;5132936;27;20693;-69
2022/10/02 13:37:14;;;;;;;3.50;1.07;;;;;;;;;;5111307;28;20455;-68
2022/10/02 13:39:57;;;;;;;4.60;0.80;;;;;;;;;;5115062;28;20978;-67
2022/10/02 13:42:35;;;;;;;3.83;1.20;;;;;;;;;;5123792;27;20457;-70
2022/10/02 13:45:12;;;;;;;4.63;1.37;;;;;;;;;;5132391;27;20637;-69
2022/10/02 13:47:43;;;;;;;5.43;2.03;;;;;;;;;;5125950;27;20939;-70
2022/10/02 13:50:31;;;;;;;11.37;1.77;;;;;;;;;;5113547;28;20459;-70
2022/10/02 13:53:23;;;;;;;3.40;0.83;;;;;;;;;;5112553;28;20776;-70
2022/10/02 13:55:53;;;;;;;5.77;1.20;;;;;;;;;;5118359;27;20450;-71
2022/10/02 13:58:52;;;;;;;5.07;2.20;;;;;;;;;;5131993;27;20454;-71
2022/10/02 14:01:27;;;;;;;4.53;0.90;;;;;;;;;;5116482;28;20459;-69
2022/10/02 14:04:04;;;;;;;6.10;1.53;;;;;;;;;;5124169;27;20457;-70
2022/10/02 14:06:34;;;;;;;4.13;0.80;;;;;;;;;;5131698;27;20478;-70
2022/10/02 14:09:12;;;;;;;5.80;1.50;;;;;;;;;;5132976;27;20736;-70
2022/10/02 14:11:46;;;;;;;6.40;2.50;;;;;;;;;;5134147;27;20438;-70
2022/10/02 14:14:27;;;;;;;11.33;1.10;;;;;;;;;;5126093;27;20453;-69
2022/10/02 14:17:02;;;;;;;5.60;1.87;;;;;;;;;;5115734;28;20557;-70
2022/10/02 14:19:44;;;;;;;3.83;1.10;;;;;;;;;;5112064;28;20545;-70
2022/10/02 14:22:35;;;;;;;4.80;1.17;;;;;;;;;;5108748;28;20510;-71
2022/10/02 14:25:21;;;;;;;5.60;2.10;;;;;;;;;;5100490;28;20613;-70
2022/10/02 14:28:01;;;;;;;4.70;1.00;;;;;;;;;;5114005;28;20450;-69
2022/10/02 14:30:32;;;;;;;12.77;2.23;;;;;;;;;;5114326;28;20773;-69
2022/10/02 14:33:06;;;;;;;6.10;1.77;;;;;;;;;;5113797;28;20576;-70
2022/10/02 14:35:39;;;;;;;11.03;1.70;;;;;;;;;;5118246;28;20502;-70
2022/10/02 14:38:23;;;;;;;6.27;1.90;;;;;;;;;;5131237;27;20958;-70
2022/10/02 14:40:52;;;;;;;6.63;1.73;;;;;;;;;;5133693;27;20425;-69
2022/10/02 14:43:37;;;;;;;3.50;0.90;;;;;;;;;;5125753;27;20956;-70
2022/10/02 14:46:34;;;;;;;8.33;1.87;;;;;;;;;;5063560;28;20537;-70
2022/10/02 14:49:29;;;;;;;2.23;1.00;;;;;;;;;;5039532;28;20469;-70
2022/10/02 14:52:08;;;;;;;4.03;1.20;;;;;;;;;;5136892;27;20462;-70
2022/10/02 14:54:47;;;;;;;5.43;1.40;;;;;;;;;;5123171;28;20523;-70
2022/10/02 14:57:26;;;;;;;6.70;1.70;;;;;;;;;;5120248;28;20508;-70
2022/10/02 15:00:13;;;;;;;9.00;2.20;;;;;;;;;;5119246;27;20448;-70
2022/10/02 15:02:52;;;;;;;11.70;2.23;;;;;;;;;;5104530;28;20523;-70
2022/10/02 15:05:33;;;;;;;8.00;1.57;;;;;;;;;;5131281;28;20793;-69
2022/10/02 15:08:02;;;;;;;4.93;1.13;;;;;;;;;;5135726;27;20463;-69
2022/10/02 15:10:34;;;;;;;5.07;1.40;;;;;;;;;;5135471;27;20452;-70
2022/10/02 15:13:06;;;;;;;9.63;2.50;;;;;;;;;;5134549;27;20470;-70
2022/10/02 15:15:36;;;;;;;10.60;3.60;;;;;;;;;;5119308;28;20455;-70
2022/10/02 15:18:16;;;;;;;7.70;1.67;;;;;;;;;;5114072;28;20516;-69
2022/10/02 15:20:58;;;;;;;5.47;1.20;;;;;;;;;;5113226;28;20458;-69
2022/10/02 15:23:40;;;;;;;7.27;2.40;;;;;;;;;;5113517;28;20497;-68
2022/10/02 15:26:15;;;;;;;8.37;1.73;;;;;;;;;;5125568;27;20488;-70
2022/10/02 15:28:49;;;;;;;5.50;1.37;;;;;;;;;;5134828;27;20460;-70
2022/10/02 15:31:21;;;;;;;7.20;1.30;;;;;;;;;;5134020;27;20536;-69
2022/10/02 15:33:55;;;;;;;6.80;1.33;;;;;;;;;;5129525;27;20455;-70
2022/10/02 15:36:39;;;;;;;5.60;1.20;;;;;;;;;;5113777;28;20458;-69
2022/10/02 15:39:21;;;;;;;13.33;2.00;;;;;;;;;;5131892;27;20481;-69
2022/10/02 15:42:01;;;;;;;4.20;1.30;;;;;;;;;;5109440;27;20497;-69